Time;durP1;ratioP1;P1;durP2;ratioP2;P2;SDS_P1;SDS_P2;PMS_P1;PMS_P2;Temp;Humidity;BMP_temperature;BMP_pressure;BME280_temperature;BME280_humidity;BME280_pressure;Samples;Min_cycle;Max_cycle;Signal;HPM_P1;HPM_P2
2023/03/28 00:00:21;;;;;;;0.93;0.75;;;3.60;91.20;;;;;;4932980;28;20758;-68
2023/03/28 00:02:47;;;;;;;1.80;0.70;;;3.50;91.10;;;;;;4939654;28;21075;-78
2023/03/28 00:05:12;;;;;;;1.05;0.70;;;3.50;91.20;;;;;;4930326;28;20042;-79
2023/03/28 00:07:38;;;;;;;2.03;1.05;;;3.60;91.50;;;;;;4937007;28;20050;-77
2023/03/28 00:10:06;;;;;;;0.77;0.63;;;3.50;91.30;;;;;;4943503;28;20027;-76
2023/03/28 00:12:32;;;;;;;1.00;0.82;;;3.50;91.60;;;;;;4934907;28;20483;-76
2023/03/28 00:14:59;;;;;;;1.50;1.27;;;3.50;91.40;;;;;;4939196;28;20035;-76
2023/03/28 00:17:25;;;;;;;3.38;0.98;;;3.50;91.40;;;;;;4935198;28;20035;-76
2023/03/28 00:19:52;;;;;;;1.08;0.85;;;3.50;91.90;;;;;;4936416;28;20030;-66
2023/03/28 00:22:20;;;;;;;2.08;1.55;;;3.50;91.30;;;;;;4923071;28;20035;-66
2023/03/28 00:24:47;;;;;;;1.23;0.90;;;3.50;90.90;;;;;;4905740;28;20042;-67
2023/03/28 00:27:14;;;;;;;1.65;0.80;;;3.60;90.90;;;;;;4914921;28;20078;-66
2023/03/28 00:29:40;;;;;;;2.15;1.08;;;3.50;91.00;;;;;;4928770;28;20106;-66
2023/03/28 00:32:06;;;;;;;2.15;0.90;;;3.40;91.30;;;;;;4927730;28;20054;-66
2023/03/28 00:34:32;;;;;;;3.25;1.10;;;3.40;91.90;;;;;;4935005;28;20030;-66
2023/03/28 00:37:01;;;;;;;1.65;1.08;;;3.50;91.70;;;;;;4922884;28;20741;-66
2023/03/28 00:39:28;;;;;;;4.28;1.75;;;3.40;90.90;;;;;;4935959;28;20027;-73
2023/03/28 00:41:54;;;;;;;1.17;0.73;;;3.40;91.70;;;;;;4927884;28;20039;-73
2023/03/28 00:44:41;;;;;;;2.38;0.82;;;3.40;90.60;;;;;;4922926;28;20031;-68
2023/03/28 00:47:14;;;;;;;1.77;1.27;;;3.30;91.40;;;;;;4927532;28;20041;-68
2023/03/28 00:49:41;;;;;;;1.52;0.98;;;3.30;91.20;;;;;;4926785;28;20097;-68
2023/03/28 00:52:07;;;;;;;1.55;1.15;;;3.20;91.40;;;;;;4928772;28;20043;-68
2023/03/28 00:54:39;;;;;;;2.47;0.95;;;3.20;91.70;;;;;;4924490;28;20038;-68
2023/03/28 00:57:07;;;;;;;1.95;1.00;;;3.30;92.00;;;;;;4928146;28;20038;-68
2023/03/28 00:59:35;;;;;;;3.88;1.10;;;3.40;91.90;;;;;;4932548;28;20043;-68
2023/03/28 01:02:00;;;;;;;1.63;0.85;;;3.30;90.60;;;;;;4929604;28;20046;-68
2023/03/28 01:04:35;;;;;;;1.40;1.10;;;3.30;91.40;;;;;;4940525;28;20460;-68
2023/03/28 01:07:01;;;;;;;0.80;0.80;;;3.30;91.90;;;;;;4932791;28;20602;-67
2023/03/28 01:09:27;;;;;;;2.25;1.02;;;3.30;91.30;;;;;;4932891;28;20027;-68
2023/03/28 01:11:55;;;;;;;1.88;0.90;;;3.30;91.30;;;;;;4932769;28;20110;-68
2023/03/28 01:14:25;;;;;;;1.17;1.00;;;3.40;91.40;;;;;;4933243;28;20049;-67
2023/03/28 01:16:51;;;;;;;2.58;1.20;;;3.30;91.30;;;;;;4930924;28;20114;-68
2023/03/28 01:19:35;;;;;;;5.00;1.02;;;3.30;92.40;;;;;;4931198;28;20490;-67
2023/03/28 01:22:12;;;;;;;1.40;0.90;;;3.30;91.50;;;;;;4932064;28;20564;-68
2023/03/28 01:24:47;;;;;;;2.78;1.17;;;3.30;92.30;;;;;;4933610;28;20031;-68
2023/03/28 01:27:25;;;;;;;1.08;0.85;;;3.30;92.40;;;;;;4936338;28;20655;-68
2023/03/28 01:30:47;;;;;;;1.10;0.90;;;3.30;91.30;;;;;;4928266;28;20031;-68
2023/03/28 01:33:25;;;;;;;1.88;1.15;;;3.30;91.60;;;;;;4913473;29;20039;-68
2023/03/28 01:36:27;;;;;;;1.17;1.00;;;3.30;91.60;;;;;;4910458;29;20032;-68
2023/03/28 01:39:16;;;;;;;2.17;1.33;;;3.30;91.50;;;;;;4930975;28;21246;-73
2023/03/28 01:42:14;;;;;;;1.83;1.20;;;3.30;92.30;;;;;;4934153;28;20114;-72
2023/03/28 01:45:06;;;;;;;1.90;1.25;;;3.30;91.80;;;;;;4930048;28;20073;-73
2023/03/28 01:47:39;;;;;;;3.50;1.08;;;3.30;91.90;;;;;;4928841;28;20065;-72
2023/03/28 01:50:26;;;;;;;2.50;1.20;;;3.20;92.20;;;;;;4943571;28;20118;-73
2023/03/28 01:53:24;;;;;;;2.58;1.10;;;3.30;92.00;;;;;;4934135;28;20023;-73
2023/03/28 01:56:20;;;;;;;1.70;0.95;;;3.20;92.90;;;;;;4921175;28;20051;-73
2023/03/28 01:59:07;;;;;;;2.28;1.20;;;3.20;92.40;;;;;;4936194;28;20078;-73
2023/03/28 02:02:00;;;;;;;1.17;0.88;;;3.10;91.70;;;;;;4937764;28;20050;-73
2023/03/28 02:04:28;;;;;;;1.52;0.80;;;3.20;93.00;;;;;;4927526;28;20090;-72
2023/03/28 02:06:56;;;;;;;2.58;1.40;;;3.10;91.90;;;;;;4936568;28;20031;-73
2023/03/28 02:09:23;;;;;;;1.42;0.88;;;3.10;92.40;;;;;;4940328;28;21590;-73
2023/03/28 02:11:55;;;;;;;0.98;0.80;;;3.10;92.30;;;;;;4933138;28;20031;-73
2023/03/28 02:14:25;;;;;;;2.10;1.27;;;3.10;92.20;;;;;;4933092;28;20063;-72
2023/03/28 02:16:59;;;;;;;1.55;0.90;;;3.10;92.70;;;;;;4940924;28;20035;-73
2023/03/28 02:19:27;;;;;;;2.55;1.17;;;3.10;93.10;;;;;;4935410;28;20679;-73
2023/03/28 02:22:05;;;;;;;1.63;1.15;;;3.20;92.70;;;;;;4933963;28;20385;-72
2023/03/28 02:24:32;;;;;;;2.33;1.00;;;3.10;92.50;;;;;;4941448;28;20038;-73
2023/03/28 02:26:57;;;;;;;1.13;1.02;;;3.20;91.90;;;;;;4934635;28;20984;-73
2023/03/28 02:29:23;;;;;;;1.88;1.00;;;3.10;92.30;;;;;;4935321;28;20076;-73
2023/03/28 02:31:49;;;;;;;2.40;1.15;;;3.10;92.60;;;;;;4936719;28;20358;-73
2023/03/28 02:34:15;;;;;;;4.05;1.30;;;3.10;92.50;;;;;;4932638;28;20138;-68
2023/03/28 02:37:11;;;;;;;1.77;1.20;;;3.00;92.40;;;;;;4940862;28;20500;-68
2023/03/28 02:39:51;;;;;;;2.20;1.50;;;2.90;93.00;;;;;;4937874;28;20046;-68
2023/03/28 02:42:47;;;;;;;2.55;1.08;;;3.00;93.00;;;;;;4938958;28;20043;-67
2023/03/28 02:45:29;;;;;;;6.18;1.23;;;3.00;93.10;;;;;;4942081;28;20043;-68
2023/03/28 02:47:57;;;;;;;3.10;1.38;;;3.00;92.70;;;;;;4933804;28;20046;-68
2023/03/28 02:50:38;;;;;;;3.40;2.78;;;3.00;93.40;;;;;;4937541;28;20046;-68
2023/03/28 02:53:31;;;;;;;2.35;2.03;;;2.90;93.80;;;;;;4939760;28;20046;-68
2023/03/28 02:56:15;;;;;;;1.85;1.65;;;2.80;94.20;;;;;;4935155;28;20074;-68
2023/03/28 02:59:00;;;;;;;2.85;1.60;;;2.90;94.10;;;;;;4936629;28;20124;-68
2023/03/28 03:01:29;;;;;;;4.40;2.15;;;2.90;94.70;;;;;;4927611;28;20031;-67
2023/03/28 03:03:55;;;;;;;2.72;1.58;;;2.90;94.60;;;;;;4940142;28;20051;-68
2023/03/28 03:06:21;;;;;;;1.60;1.13;;;2.90;93.90;;;;;;4942361;28;20059;-68
2023/03/28 03:08:47;;;;;;;1.77;1.10;;;2.90;94.20;;;;;;4934951;28;20593;-67
2023/03/28 03:11:12;;;;;;;4.03;1.83;;;2.90;94.50;;;;;;4929051;28;20116;-68
2023/03/28 03:13:38;;;;;;;3.33;1.20;;;3.00;95.20;;;;;;4937719;28;20384;-67
2023/03/28 03:16:04;;;;;;;2.55;1.25;;;3.00;95.10;;;;;;4931134;28;20601;-68
2023/03/28 03:18:31;;;;;;;1.60;1.05;;;3.10;95.10;;;;;;4939413;28;20066;-68
2023/03/28 03:20:57;;;;;;;4.32;1.60;;;3.00;95.40;;;;;;4939370;28;20047;-67
2023/03/28 03:23:23;;;;;;;2.58;1.42;;;3.00;95.50;;;;;;4934193;28;20063;-68
2023/03/28 03:25:50;;;;;;;2.08;1.25;;;3.00;96.00;;;;;;4936932;28;20082;-67
2023/03/28 03:28:16;;;;;;;1.90;1.60;;;3.00;96.40;;;;;;4940048;28;20031;-68
2023/03/28 03:30:42;;;;;;;2.13;1.35;;;3.00;96.70;;;;;;4931720;28;20481;-67
2023/03/28 03:33:13;;;;;;;2.90;1.40;;;3.10;97.00;;;;;;4930291;28;20031;-67
2023/03/28 03:35:40;;;;;;;4.60;1.33;;;3.10;96.80;;;;;;4943376;28;20566;-68
2023/03/28 03:38:07;;;;;;;3.25;1.45;;;3.10;97.70;;;;;;4938051;28;20119;-67
2023/03/28 03:40:33;;;;;;;2.30;1.73;;;3.00;98.10;;;;;;4937754;28;20093;-67
2023/03/28 03:42:59;;;;;;;2.35;1.23;;;3.00;98.70;;;;;;4936857;28;20042;-67
2023/03/28 03:45:25;;;;;;;2.63;1.48;;;3.10;99.20;;;;;;4932409;28;20516;-67
2023/03/28 03:47:50;;;;;;;2.05;1.52;;;3.00;99.10;;;;;;4936012;28;20035;-68
2023/03/28 03:50:16;;;;;;;2.22;1.58;;;2.90;99.80;;;;;;4934112;28;20042;-73
2023/03/28 03:52:42;;;;;;;3.15;1.67;;;2.80;99.90;;;;;;4936131;28;20114;-73
2023/03/28 03:55:08;;;;;;;2.63;1.63;;;2.80;99.90;;;;;;4933830;28;20039;-72
2023/03/28 03:57:34;;;;;;;2.88;1.58;;;2.80;99.90;;;;;;4930543;28;20050;-72
2023/03/28 04:00:00;;;;;;;2.95;1.75;;;2.80;99.90;;;;;;4931593;28;20027;-72
2023/03/28 04:02:26;;;;;;;2.30;1.40;;;2.80;99.90;;;;;;4931614;28;20058;-72
2023/03/28 04:04:53;;;;;;;1.60;1.50;;;2.80;99.90;;;;;;4936289;28;20134;-71
2023/03/28 04:07:18;;;;;;;1.63;1.27;;;2.80;99.90;;;;;;4933459;28;20031;-72
2023/03/28 04:09:44;;;;;;;3.90;1.77;;;2.80;99.90;;;;;;4937953;28;20046;-71
2023/03/28 04:12:10;;;;;;;2.67;1.73;;;2.70;99.90;;;;;;4935058;28;20027;-73
2023/03/28 04:14:36;;;;;;;2.45;1.50;;;2.60;99.90;;;;;;4938279;28;20657;-72
2023/03/28 04:17:03;;;;;;;4.70;1.80;;;2.50;99.90;;;;;;4930859;28;20055;-72
2023/03/28 04:19:29;;;;;;;3.03;1.85;;;2.50;99.90;;;;;;4930748;28;20122;-71
2023/03/28 04:21:55;;;;;;;4.28;1.75;;;2.40;99.90;;;;;;4935515;28;20063;-72
2023/03/28 04:24:25;;;;;;;3.47;1.67;;;2.50;99.90;;;;;;4933721;28;20159;-72
2023/03/28 04:26:54;;;;;;;2.58;2.00;;;2.50;99.90;;;;;;4935777;28;20031;-72
2023/03/28 04:29:29;;;;;;;7.97;2.22;;;2.50;99.90;;;;;;4936948;28;20039;-66
2023/03/28 04:31:56;;;;;;;1.85;1.73;;;2.50;99.90;;;;;;4926360;28;21740;-67
2023/03/28 04:34:28;;;;;;;3.17;1.77;;;2.60;99.90;;;;;;4928842;28;20034;-67
2023/03/28 04:36:55;;;;;;;6.65;2.60;;;2.60;99.90;;;;;;4936127;28;20424;-67
2023/03/28 04:39:21;;;;;;;3.03;2.15;;;2.60;99.90;;;;;;4935787;28;20053;-67
2023/03/28 04:41:47;;;;;;;2.80;1.88;;;2.60;99.90;;;;;;4935715;28;20032;-67
2023/03/28 04:44:13;;;;;;;2.72;1.77;;;2.50;99.90;;;;;;4934644;28;20047;-67
2023/03/28 04:46:38;;;;;;;2.63;2.20;;;2.50;99.90;;;;;;4935435;28;20580;-67
2023/03/28 04:49:04;;;;;;;3.08;1.95;;;2.60;99.90;;;;;;4928897;28;20043;-66
2023/03/28 04:51:29;;;;;;;2.40;1.98;;;2.50;99.90;;;;;;4931898;28;20066;-66
2023/03/28 04:53:55;;;;;;;2.97;1.80;;;2.50;99.90;;;;;;4922751;28;20127;-66
2023/03/28 04:56:22;;;;;;;14.60;8.25;;;2.50;99.90;;;;;;4929334;28;20067;-67
2023/03/28 04:58:47;;;;;;;5.05;3.20;;;2.50;99.90;;;;;;4933756;28;20046;-67
2023/03/28 05:01:13;;;;;;;5.18;2.28;;;2.50;99.90;;;;;;4924322;28;20039;-67
2023/03/28 05:03:39;;;;;;;3.28;1.98;;;2.60;99.90;;;;;;4940691;28;20046;-67
2023/03/28 05:06:05;;;;;;;3.60;2.15;;;2.60;99.90;;;;;;4915389;28;20066;-67
2023/03/28 05:08:31;;;;;;;3.80;2.35;;;2.70;99.90;;;;;;4926199;28;20037;-67
2023/03/28 05:10:57;;;;;;;2.25;1.88;;;2.70;99.90;;;;;;4931031;28;20029;-67
2023/03/28 05:13:24;;;;;;;2.10;1.88;;;2.70;99.90;;;;;;4936278;28;20046;-67
2023/03/28 05:15:50;;;;;;;4.55;2.25;;;2.70;99.90;;;;;;4927440;28;20078;-67
2023/03/28 05:18:16;;;;;;;1.85;1.75;;;2.70;99.90;;;;;;4933400;28;20477;-66
2023/03/28 05:20:42;;;;;;;3.15;2.03;;;2.90;99.90;;;;;;4929021;28;20420;-66
2023/03/28 05:23:08;;;;;;;1.90;1.73;;;2.90;99.90;;;;;;4932655;28;20434;-67
2023/03/28 05:25:35;;;;;;;1.67;1.50;;;2.90;99.90;;;;;;4937041;28;20032;-78
2023/03/28 05:28:01;;;;;;;3.20;1.88;;;3.10;99.90;;;;;;4938688;28;20486;-79
2023/03/28 05:30:27;;;;;;;2.33;1.67;;;3.10;99.90;;;;;;4923093;28;20023;-78
2023/03/28 05:32:53;;;;;;;2.60;1.92;;;3.20;99.90;;;;;;4929076;28;20059;-78
2023/03/28 05:35:19;;;;;;;2.13;1.77;;;3.30;99.90;;;;;;4929443;28;20447;-79
2023/03/28 05:37:45;;;;;;;2.65;2.42;;;3.40;99.90;;;;;;4924191;28;20058;-77
2023/03/28 05:40:12;;;;;;;2.15;1.77;;;3.40;99.90;;;;;;4928215;28;20035;-75
2023/03/28 05:42:38;;;;;;;2.40;1.90;;;3.40;99.90;;;;;;4931085;28;20043;-76
2023/03/28 05:45:05;;;;;;;2.60;1.90;;;3.50;99.90;;;;;;4929368;28;20040;-76
2023/03/28 05:47:31;;;;;;;1.38;1.27;;;3.50;99.90;;;;;;4931316;28;20189;-76
2023/03/28 05:49:57;;;;;;;1.35;1.20;;;3.70;99.90;;;;;;4941375;28;20121;-76
2023/03/28 05:52:23;;;;;;;1.42;1.33;;;3.70;99.90;;;;;;4932714;28;20810;-75
2023/03/28 05:54:49;;;;;;;4.60;1.73;;;3.60;99.90;;;;;;4935444;28;20043;-74
2023/03/28 05:57:15;;;;;;;1.48;1.38;;;3.50;99.90;;;;;;4929111;28;20024;-80
2023/03/28 05:59:42;;;;;;;4.28;1.40;;;3.70;99.90;;;;;;4934952;28;20457;-77
2023/03/28 06:02:16;;;;;;;2.10;1.48;;;3.70;99.90;;;;;;4930330;28;20039;-77
2023/03/28 06:04:42;;;;;;;4.88;1.75;;;3.80;99.90;;;;;;4933833;28;20050;-67
2023/03/28 06:07:08;;;;;;;1.83;1.30;;;3.90;99.90;;;;;;4933232;28;20027;-68
2023/03/28 06:09:34;;;;;;;1.98;1.50;;;4.00;99.90;;;;;;4940674;28;20039;-67
2023/03/28 06:12:02;;;;;;;2.05;1.30;;;4.00;99.90;;;;;;4941484;28;20623;-67
2023/03/28 06:14:28;;;;;;;2.72;1.75;;;4.00;99.90;;;;;;4936639;28;20026;-67
2023/03/28 06:16:54;;;;;;;1.60;1.02;;;4.00;99.90;;;;;;4924098;28;20410;-68
2023/03/28 06:19:20;;;;;;;3.58;1.45;;;4.00;99.90;;;;;;4938073;28;20035;-66
2023/03/28 06:21:45;;;;;;;2.88;1.40;;;4.00;99.90;;;;;;4937047;28;20024;-68
2023/03/28 06:24:11;;;;;;;1.33;0.93;;;4.00;99.90;;;;;;4923475;28;20614;-67
2023/03/28 06:26:37;;;;;;;2.15;1.38;;;4.00;99.90;;;;;;4934689;28;20118;-68
2023/03/28 06:29:04;;;;;;;1.85;1.20;;;4.00;99.90;;;;;;4936983;28;20372;-66
2023/03/28 06:31:30;;;;;;;1.90;1.13;;;4.00;99.90;;;;;;4930613;28;20047;-67
2023/03/28 06:33:56;;;;;;;1.52;1.30;;;4.10;99.90;;;;;;4933998;28;20022;-67
2023/03/28 06:36:22;;;;;;;3.08;1.10;;;4.20;99.90;;;;;;4937481;28;20094;-67
2023/03/28 06:38:49;;;;;;;4.22;1.30;;;4.40;99.90;;;;;;4928407;28;20039;-68
2023/03/28 06:41:15;;;;;;;2.13;0.95;;;4.50;99.90;;;;;;4931322;28;20031;-67
2023/03/28 06:43:41;;;;;;;2.38;1.40;;;4.50;99.90;;;;;;4929511;28;20142;-68
2023/03/28 06:46:08;;;;;;;2.65;1.40;;;4.50;99.90;;;;;;4926224;28;20626;-68
2023/03/28 06:48:34;;;;;;;2.28;1.15;;;4.60;99.90;;;;;;4935820;28;20606;-67
2023/03/28 06:51:00;;;;;;;2.67;1.23;;;4.60;99.90;;;;;;4926933;28;20126;-68
2023/03/28 06:53:26;;;;;;;1.88;1.30;;;4.60;99.90;;;;;;4931901;28;20054;-67
2023/03/28 06:55:52;;;;;;;2.03;1.10;;;4.50;99.90;;;;;;4931711;28;20136;-67
2023/03/28 06:58:19;;;;;;;1.40;1.30;;;4.30;99.90;;;;;;4937371;28;20047;-67
2023/03/28 07:00:45;;;;;;;1.48;1.30;;;4.30;99.90;;;;;;4929793;28;20038;-76
2023/03/28 07:03:11;;;;;;;1.58;1.40;;;4.40;99.90;;;;;;4930956;28;20636;-71
2023/03/28 07:05:39;;;;;;;2.63;1.40;;;4.50;99.90;;;;;;4935116;28;20039;-72
2023/03/28 07:08:09;;;;;;;4.07;1.90;;;4.30;99.90;;;;;;4933578;28;20035;-75
2023/03/28 07:10:36;;;;;;;4.18;1.40;;;4.30;99.90;;;;;;4937098;28;20046;-74
2023/03/28 07:13:02;;;;;;;1.92;1.58;;;4.40;99.90;;;;;;4937615;28;20086;-76
2023/03/28 07:15:28;;;;;;;1.80;1.25;;;4.50;99.90;;;;;;4937734;28;20031;-74
2023/03/28 07:17:54;;;;;;;1.05;1.00;;;4.60;99.90;;;;;;4933931;28;20044;-75
2023/03/28 07:20:20;;;;;;;2.85;1.40;;;4.80;99.90;;;;;;4941167;28;20137;-77
2023/03/28 07:22:45;;;;;;;4.47;1.40;;;4.70;99.90;;;;;;4934858;28;20055;-75
2023/03/28 07:25:11;;;;;;;3.90;1.73;;;4.60;99.90;;;;;;4928630;28;20045;-71
2023/03/28 07:27:37;;;;;;;2.95;1.70;;;4.80;99.90;;;;;;4934821;28;20031;-74
2023/03/28 07:30:05;;;;;;;2.70;1.77;;;5.10;99.90;;;;;;4933646;28;20038;-74
2023/03/28 07:32:30;;;;;;;4.85;2.20;;;5.20;99.90;;;;;;4941384;28;20101;-78
2023/03/28 07:34:56;;;;;;;2.22;1.80;;;4.90;99.90;;;;;;4941191;28;20114;-77
2023/03/28 07:37:22;;;;;;;1.95;1.77;;;4.90;99.90;;;;;;4938896;28;20127;-74
2023/03/28 07:39:48;;;;;;;3.50;1.65;;;5.20;99.90;;;;;;4952410;28;20035;-75
2023/03/28 07:42:15;;;;;;;2.42;1.52;;;5.30;99.90;;;;;;4938702;28;20019;-78
2023/03/28 07:44:40;;;;;;;1.73;1.63;;;5.50;99.90;;;;;;4942601;28;20036;-79
2023/03/28 07:47:07;;;;;;;2.28;1.77;;;5.60;99.90;;;;;;4946656;28;20149;-75
2023/03/28 07:49:33;;;;;;;1.88;1.67;;;5.90;99.90;;;;;;4935653;28;20154;-74
2023/03/28 07:51:59;;;;;;;1.60;1.30;;;6.00;99.90;;;;;;4939580;28;20155;-76
2023/03/28 07:54:27;;;;;;;2.03;1.83;;;5.90;99.90;;;;;;4931701;28;20488;-80
2023/03/28 07:56:53;;;;;;;3.25;1.90;;;5.80;99.90;;;;;;4943217;28;20031;-79
2023/03/28 07:59:19;;;;;;;2.60;1.20;;;5.80;99.90;;;;;;4941775;28;20047;-78
2023/03/28 08:01:46;;;;;;;1.80;1.38;;;5.60;99.90;;;;;;4942766;28;20433;-80
2023/03/28 08:04:12;;;;;;;3.05;1.40;;;5.30;99.90;;;;;;4944522;28;20043;-77
2023/03/28 08:06:39;;;;;;;3.45;1.40;;;5.10;99.90;;;;;;4945166;28;20039;-78
2023/03/28 08:09:09;;;;;;;1.95;1.20;;;5.40;99.90;;;;;;4944310;28;20027;-77
2023/03/28 08:11:35;;;;;;;1.98;1.00;;;5.60;99.90;;;;;;4942664;28;20046;-76
2023/03/28 08:14:03;;;;;;;2.05;1.30;;;5.40;99.90;;;;;;4939690;28;20038;-74
2023/03/28 08:16:29;;;;;;;2.72;1.13;;;5.40;99.90;;;;;;4943293;28;20067;-73
2023/03/28 08:18:55;;;;;;;3.28;0.90;;;5.50;99.90;;;;;;4936403;28;21771;-75
2023/03/28 08:21:21;;;;;;;2.97;1.23;;;5.70;99.90;;;;;;4938185;28;20020;-76
2023/03/28 08:23:47;;;;;;;1.77;0.90;;;5.50;99.90;;;;;;4933317;28;20090;-75
2023/03/28 08:26:12;;;;;;;2.00;0.75;;;5.50;99.90;;;;;;4937748;28;20355;-74
2023/03/28 08:28:38;;;;;;;2.65;1.23;;;5.70;99.90;;;;;;4932489;28;20501;-76
2023/03/28 08:31:12;;;;;;;3.05;0.88;;;5.70;99.90;;;;;;4936564;28;20038;-76
2023/03/28 08:33:39;;;;;;;2.60;1.25;;;5.50;99.90;;;;;;4931911;28;20034;-75
2023/03/28 08:36:05;;;;;;;1.55;0.98;;;5.20;99.90;;;;;;4935928;28;20043;-68
2023/03/28 08:38:31;;;;;;;2.53;1.42;;;5.00;99.90;;;;;;4930562;28;20641;-68
2023/03/28 08:41:39;;;;;;;1.20;0.75;;;4.90;99.90;;;;;;4941190;28;20027;-67
2023/03/28 08:44:42;;;;;;;10.00;1.40;;;4.90;99.90;;;;;;4936126;28;20158;-69
2023/03/28 08:47:26;;;;;;;1.38;0.90;;;5.10;99.90;;;;;;4931283;28;20138;-68
2023/03/28 08:50:15;;;;;;;4.32;0.93;;;5.40;99.90;;;;;;4935671;28;20030;-68
2023/03/28 08:52:42;;;;;;;1.65;0.98;;;5.50;99.90;;;;;;4932606;28;20042;-69
2023/03/28 08:55:34;;;;;;;1.02;0.80;;;5.70;99.90;;;;;;4930934;28;20404;-68
2023/03/28 08:58:00;;;;;;;3.03;1.00;;;6.00;99.90;;;;;;4931261;28;20118;-69
2023/03/28 09:00:32;;;;;;;2.67;0.90;;;6.40;99.90;;;;;;4939713;28;20379;-68
2023/03/28 09:02:58;;;;;;;1.17;0.75;;;6.50;99.90;;;;;;4935770;28;20202;-68
2023/03/28 09:05:48;;;;;;;0.93;0.63;;;6.40;99.90;;;;;;4932752;28;20142;-68
2023/03/28 09:08:17;;;;;;;1.33;0.52;;;6.30;99.80;;;;;;4930726;28;20039;-67
2023/03/28 09:10:47;;;;;;;1.63;0.57;;;6.30;99.90;;;;;;4924856;28;20639;-69
2023/03/28 09:13:40;;;;;;;1.60;0.47;;;6.50;99.20;;;;;;4931168;28;20071;-69
2023/03/28 09:16:09;;;;;;;1.50;0.50;;;6.60;98.80;;;;;;4934790;28;20042;-69
2023/03/28 09:18:56;;;;;;;2.25;0.70;;;6.60;99.20;;;;;;4932306;28;20027;-69
2023/03/28 09:21:49;;;;;;;1.83;0.60;;;6.70;98.90;;;;;;4923600;28;20170;-69
2023/03/28 09:24:25;;;;;;;1.00;0.45;;;6.70;99.90;;;;;;4927482;28;20099;-69
2023/03/28 09:27:05;;;;;;;0.50;0.47;;;6.80;98.40;;;;;;4937794;28;20031;-68
2023/03/28 09:29:34;;;;;;;1.02;0.63;;;6.60;97.60;;;;;;4929999;28;20027;-68
2023/03/28 09:32:10;;;;;;;1.00;0.50;;;6.50;97.40;;;;;;4933562;28;20094;-69
2023/03/28 09:34:38;;;;;;;0.60;0.40;;;6.50;97.30;;;;;;4929194;28;20073;-71
2023/03/28 09:37:40;;;;;;;1.60;0.50;;;6.60;97.70;;;;;;4935331;28;20145;-73
2023/03/28 09:40:25;;;;;;;0.68;0.40;;;6.70;96.30;;;;;;4933890;28;20023;-74
2023/03/28 09:42:55;;;;;;;0.80;0.55;;;6.90;94.40;;;;;;4927590;28;20075;-76
2023/03/28 09:45:48;;;;;;;0.55;0.55;;;6.90;94.40;;;;;;4929006;28;20070;-74
2023/03/28 09:48:23;;;;;;;0.43;0.25;;;7.10;96.10;;;;;;4924761;28;20129;-76
2023/03/28 09:50:51;;;;;;;0.35;0.13;;;6.90;90.60;;;;;;4921527;28;20035;-75
2023/03/28 09:53:24;;;;;;;0.47;0.30;;;6.60;91.20;;;;;;4919351;28;20142;-74
2023/03/28 09:55:52;;;;;;;0.68;0.30;;;6.30;90.40;;;;;;4928327;28;20032;-75
2023/03/28 09:58:18;;;;;;;0.63;0.40;;;6.30;92.90;;;;;;4930029;28;20039;-75
2023/03/28 10:00:49;;;;;;;1.33;0.47;;;6.40;90.80;;;;;;4925026;28;20497;-75
2023/03/28 10:03:33;;;;;;;0.70;0.20;;;6.50;92.10;;;;;;4930132;28;20591;-74
2023/03/28 10:06:16;;;;;;;0.40;0.30;;;6.60;89.10;;;;;;4936426;28;20032;-75
2023/03/28 10:08:43;;;;;;;0.28;0.20;;;6.70;89.00;;;;;;4922228;28;20099;-75
2023/03/28 10:11:13;;;;;;;0.63;0.28;;;6.90;84.20;;;;;;4932769;28;20074;-76
2023/03/28 10:13:46;;;;;;;2.75;0.20;;;6.90;89.00;;;;;;4926514;28;20613;-74
2023/03/28 10:16:14;;;;;;;0.47;0.28;;;7.10;85.60;;;;;;4921850;28;20039;-74
2023/03/28 10:18:41;;;;;;;0.20;0.20;;;7.30;83.90;;;;;;4934876;28;20031;-74
2023/03/28 10:21:39;;;;;;;0.28;0.28;;;7.40;83.20;;;;;;4931718;28;20031;-76
2023/03/28 10:24:07;;;;;;;0.22;0.20;;;7.40;81.80;;;;;;4911649;28;20552;-76
2023/03/28 10:26:33;;;;;;;0.25;0.15;;;7.20;84.10;;;;;;4923675;28;20031;-76
2023/03/28 10:29:02;;;;;;;1.17;0.38;;;7.10;82.00;;;;;;4928569;28;20555;-72
2023/03/28 10:31:31;;;;;;;0.20;0.20;;;7.00;80.60;;;;;;4930500;28;20035;-75
2023/03/28 10:33:58;;;;;;;0.45;0.22;;;7.10;79.10;;;;;;4914501;28;20521;-73
2023/03/28 10:36:41;;;;;;;0.60;0.20;;;7.20;83.60;;;;;;4930125;28;20460;-73
2023/03/28 10:39:20;;;;;;;1.50;0.30;;;7.40;83.20;;;;;;4930326;28;20153;-74
2023/03/28 10:41:58;;;;;;;0.10;0.10;;;7.50;82.10;;;;;;4940552;28;20078;-75
2023/03/28 10:44:31;;;;;;;0.13;0.10;;;7.60;75.80;;;;;;4925019;28;20143;-75
2023/03/28 10:47:00;;;;;;;0.15;0.15;;;7.70;76.90;;;;;;4941401;28;20658;-75
2023/03/28 10:49:29;;;;;;;0.17;0.17;;;7.90;76.90;;;;;;4939194;28;20026;-76
2023/03/28 10:51:55;;;;;;;0.50;0.30;;;8.00;74.30;;;;;;4928146;28;20038;-73
2023/03/28 10:54:37;;;;;;;0.20;0.20;;;7.80;72.70;;;;;;4936482;28;20800;-74
2023/03/28 10:57:26;;;;;;;0.30;0.20;;;7.70;74.90;;;;;;4912998;28;20290;-74
2023/03/28 11:00:11;;;;;;;0.45;0.30;;;7.70;72.40;;;;;;4924364;28;20054;-72
2023/03/28 11:02:57;;;;;;;0.30;0.30;;;7.50;72.70;;;;;;4932867;28;20492;-75
2023/03/28 11:05:30;;;;;;;0.65;0.40;;;7.60;78.50;;;;;;4933388;28;20047;-75
2023/03/28 11:08:21;;;;;;;0.40;0.30;;;7.60;79.80;;;;;;4942811;28;20062;-77
2023/03/28 11:11:24;;;;;;;1.02;0.40;;;7.80;79.10;;;;;;4935232;28;20023;-75
2023/03/28 11:14:03;;;;;;;2.80;0.45;;;7.80;73.80;;;;;;4935799;28;20047;-78
2023/03/28 11:16:43;;;;;;;0.50;0.50;;;7.70;77.00;;;;;;4929466;28;20540;-77
2023/03/28 11:19:32;;;;;;;0.73;0.38;;;7.60;79.20;;;;;;4928392;28;21771;-75
2023/03/28 11:22:28;;;;;;;3.53;0.38;;;7.70;74.50;;;;;;4927416;28;20047;-77
2023/03/28 11:24:53;;;;;;;2.10;0.47;;;7.80;77.20;;;;;;4929156;28;20479;-76
2023/03/28 11:27:53;;;;;;;0.30;0.20;;;7.80;77.60;;;;;;4932189;28;20059;-78
2023/03/28 11:30:33;;;;;;;0.13;0.10;;;7.90;76.00;;;;;;4931254;28;20043;-76
2023/03/28 11:33:13;;;;;;;0.38;0.20;;;7.90;67.70;;;;;;4933055;28;20070;-75
2023/03/28 11:35:53;;;;;;;1.15;0.20;;;7.90;69.80;;;;;;4934289;28;20091;-74
2023/03/28 11:38:25;;;;;;;0.17;0.17;;;8.00;71.70;;;;;;4937898;28;20130;-76
2023/03/28 11:41:15;;;;;;;0.13;0.13;;;8.10;68.00;;;;;;4933380;28;20024;-77
2023/03/28 11:43:50;;;;;;;0.20;0.20;;;8.00;68.50;;;;;;4926423;28;20582;-76
2023/03/28 11:46:36;;;;;;;1.05;0.40;;;8.10;70.20;;;;;;4930667;28;20039;-74
2023/03/28 11:49:17;;;;;;;1.30;0.30;;;8.10;68.50;;;;;;4919164;28;21193;-72
2023/03/28 11:51:51;;;;;;;1.48;0.40;;;8.10;69.60;;;;;;4938534;28;20044;-74
2023/03/28 11:54:36;;;;;;;14.07;9.35;;;8.20;69.80;;;;;;4936889;28;20090;-74
2023/03/28 11:57:27;;;;;;;2.88;2.67;;;8.30;66.80;;;;;;4923789;28;20039;-75
2023/03/28 12:00:04;;;;;;;0.52;0.30;;;8.20;65.80;;;;;;4933932;28;20026;-73
2023/03/28 12:02:29;;;;;;;3.53;0.32;;;8.00;65.80;;;;;;4917946;28;20082;-72
2023/03/28 12:05:05;;;;;;;0.95;0.28;;;8.10;69.30;;;;;;4919751;28;20126;-73
2023/03/28 12:07:42;;;;;;;1.75;0.10;;;8.30;67.30;;;;;;4915905;28;20066;-73
2023/03/28 12:10:22;;;;;;;0.10;0.10;;;8.50;65.20;;;;;;4924495;28;20031;-72
2023/03/28 12:13:15;;;;;;;0.20;0.20;;;8.40;62.20;;;;;;4924068;28;20074;-79
2023/03/28 12:16:17;;;;;;;1.27;0.38;;;8.10;63.70;;;;;;4911078;28;20035;-76
2023/03/28 12:18:51;;;;;;;0.55;0.30;;;8.10;67.20;;;;;;4916787;28;20043;-77
2023/03/28 12:21:37;;;;;;;0.47;0.20;;;7.80;63.00;;;;;;4920502;28;20031;-77
2023/03/28 12:24:41;;;;;;;0.45;0.15;;;7.60;66.40;;;;;;4924957;28;20162;-76
2023/03/28 12:27:25;;;;;;;2.83;0.50;;;7.60;66.70;;;;;;4924225;28;20031;-67
2023/03/28 12:30:04;;;;;;;0.47;0.30;;;7.50;66.10;;;;;;4929627;28;20110;-68
2023/03/28 12:33:19;;;;;;;1.17;0.30;;;7.40;67.00;;;;;;4932140;28;20496;-67
2023/03/28 12:36:03;;;;;;;0.13;0.13;;;7.40;65.50;;;;;;4900273;28;20043;-67
2023/03/28 12:38:34;;;;;;;0.10;0.10;;;7.40;66.10;;;;;;4943795;28;20058;-67
2023/03/28 12:41:05;;;;;;;0.37;0.23;;;7.50;67.40;;;;;;4939216;28;20031;-67
2023/03/28 12:43:54;;;;;;;0.77;0.47;;;7.70;69.80;;;;;;4940375;28;20078;-66
2023/03/28 12:46:25;;;;;;;0.20;0.10;;;7.90;69.40;;;;;;4937226;28;20031;-67
2023/03/28 12:48:51;;;;;;;0.65;0.13;;;8.00;66.60;;;;;;4935996;28;20366;-67
2023/03/28 12:51:43;;;;;;;0.57;0.30;;;8.00;65.10;;;;;;4940855;28;20109;-67
2023/03/28 12:54:08;;;;;;;0.45;0.20;;;8.00;66.30;;;;;;4936171;28;20031;-67
2023/03/28 12:56:34;;;;;;;0.20;0.20;;;8.10;69.00;;;;;;4940015;28;20538;-66
2023/03/28 12:59:14;;;;;;;0.45;0.30;;;8.30;64.80;;;;;;4938275;28;20039;-67
2023/03/28 13:01:51;;;;;;;2.17;0.40;;;8.20;66.20;;;;;;4936802;28;20496;-67
2023/03/28 13:04:27;;;;;;;0.22;0.20;;;8.40;65.00;;;;;;4934292;28;20044;-67
2023/03/28 13:07:23;;;;;;;0.60;0.20;;;8.40;59.90;;;;;;4925062;28;20032;-67
2023/03/28 13:10:14;;;;;;;0.38;0.20;;;8.50;65.90;;;;;;4937001;28;20038;-67
2023/03/28 13:13:00;;;;;;;0.55;0.30;;;8.60;63.70;;;;;;4939176;28;20071;-67
2023/03/28 13:15:29;;;;;;;0.10;0.10;;;8.80;65.80;;;;;;4936087;28;20034;-67
2023/03/28 13:18:19;;;;;;;0.40;0.20;;;8.90;62.90;;;;;;4938983;28;20027;-67
2023/03/28 13:20:46;;;;;;;0.95;0.50;;;8.80;59.30;;;;;;4951627;28;20356;-67
2023/03/28 13:23:14;;;;;;;1.98;0.28;;;8.50;54.80;;;;;;4932623;28;20047;-76
2023/03/28 13:25:42;;;;;;;0.95;0.20;;;8.20;53.40;;;;;;4933445;28;20163;-76